sensor_id;sensor_type;location;lat;lon;timestamp;P1;durP1;ratioP1;P2;durP2;ratioP2
16326;SDS011;34812;49.846;9.610;2023-10-09T00:04:42;2.57;;;2.03;;
16326;SDS011;34812;49.846;9.610;2023-10-09T00:09:45;4.70;;;2.00;;
16326;SDS011;34812;49.846;9.610;2023-10-09T00:14:47;2.17;;;1.97;;
16326;SDS011;34812;49.846;9.610;2023-10-09T00:19:56;1.70;;;1.57;;
16326;SDS011;34812;49.846;9.610;2023-10-09T00:25:08;2.03;;;1.67;;
16326;SDS011;34812;49.846;9.610;2023-10-09T00:30:21;3.27;;;1.63;;
16326;SDS011;34812;49.846;9.610;2023-10-09T00:35:31;2.97;;;1.77;;
16326;SDS011;34812;49.846;9.610;2023-10-09T00:40:47;1.20;;;1.13;;
16326;SDS011;34812;49.846;9.610;2023-10-09T00:45:57;3.07;;;1.97;;
16326;SDS011;34812;49.846;9.610;2023-10-09T00:51:04;1.70;;;1.50;;
16326;SDS011;34812;49.846;9.610;2023-10-09T00:56:16;1.80;;;1.70;;
16326;SDS011;34812;49.846;9.610;2023-10-09T01:01:29;2.07;;;1.87;;
16326;SDS011;34812;49.846;9.610;2023-10-09T01:06:35;2.13;;;1.83;;
16326;SDS011;34812;49.846;9.610;2023-10-09T01:11:43;1.90;;;1.53;;
16326;SDS011;34812;49.846;9.610;2023-10-09T01:16:51;2.17;;;1.60;;
16326;SDS011;34812;49.846;9.610;2023-10-09T01:21:56;2.63;;;1.60;;
16326;SDS011;34812;49.846;9.610;2023-10-09T01:27:06;1.90;;;1.80;;
16326;SDS011;34812;49.846;9.610;2023-10-09T01:32:14;2.57;;;1.93;;
16326;SDS011;34812;49.846;9.610;2023-10-09T01:37:20;2.87;;;1.90;;
16326;SDS011;34812;49.846;9.610;2023-10-09T01:42:24;7.90;;;2.27;;
16326;SDS011;34812;49.846;9.610;2023-10-09T01:47:34;6.57;;;1.50;;
16326;SDS011;34812;49.846;9.610;2023-10-09T01:52:38;1.50;;;1.40;;
16326;SDS011;34812;49.846;9.610;2023-10-09T01:57:41;3.67;;;1.83;;
16326;SDS011;34812;49.846;9.610;2023-10-09T02:02:45;3.40;;;1.80;;
16326;SDS011;34812;49.846;9.610;2023-10-09T02:07:48;2.70;;;1.50;;
16326;SDS011;34812;49.846;9.610;2023-10-09T02:12:53;2.70;;;1.70;;
16326;SDS011;34812;49.846;9.610;2023-10-09T02:17:58;2.37;;;1.60;;
16326;SDS011;34812;49.846;9.610;2023-10-09T02:23:01;1.60;;;1.40;;
16326;SDS011;34812;49.846;9.610;2023-10-09T02:28:14;3.10;;;2.20;;
16326;SDS011;34812;49.846;9.610;2023-10-09T02:33:19;2.27;;;1.80;;
16326;SDS011;34812;49.846;9.610;2023-10-09T02:38:27;3.53;;;1.60;;
16326;SDS011;34812;49.846;9.610;2023-10-09T02:43:34;2.97;;;1.70;;
16326;SDS011;34812;49.846;9.610;2023-10-09T02:48:44;7.03;;;2.17;;
16326;SDS011;34812;49.846;9.610;2023-10-09T02:53:51;5.63;;;2.50;;
16326;SDS011;34812;49.846;9.610;2023-10-09T02:58:54;2.57;;;1.97;;
16326;SDS011;34812;49.846;9.610;2023-10-09T03:04:06;6.80;;;3.03;;
16326;SDS011;34812;49.846;9.610;2023-10-09T03:09:10;7.07;;;2.37;;
16326;SDS011;34812;49.846;9.610;2023-10-09T03:14:18;5.90;;;2.73;;
16326;SDS011;34812;49.846;9.610;2023-10-09T03:19:26;4.73;;;2.90;;
16326;SDS011;34812;49.846;9.610;2023-10-09T03:24:29;4.03;;;2.50;;
16326;SDS011;34812;49.846;9.610;2023-10-09T03:29:33;15.77;;;3.20;;
16326;SDS011;34812;49.846;9.610;2023-10-09T03:34:37;4.40;;;2.43;;
16326;SDS011;34812;49.846;9.610;2023-10-09T03:39:39;10.33;;;2.97;;
16326;SDS011;34812;49.846;9.610;2023-10-09T03:44:43;8.30;;;3.03;;
16326;SDS011;34812;49.846;9.610;2023-10-09T03:49:49;8.47;;;2.70;;
16326;SDS011;34812;49.846;9.610;2023-10-09T03:54:53;4.57;;;2.70;;
16326;SDS011;34812;49.846;9.610;2023-10-09T03:59:57;3.03;;;2.10;;
16326;SDS011;34812;49.846;9.610;2023-10-09T04:05:00;3.20;;;2.40;;
16326;SDS011;34812;49.846;9.610;2023-10-09T04:10:02;4.23;;;2.30;;
16326;SDS011;34812;49.846;9.610;2023-10-09T04:15:26;3.27;;;2.47;;
16326;SDS011;34812;49.846;9.610;2023-10-09T04:20:35;6.53;;;2.60;;
16326;SDS011;34812;49.846;9.610;2023-10-09T04:26:16;1.93;;;1.70;;
16326;SDS011;34812;49.846;9.610;2023-10-09T04:31:22;8.13;;;2.00;;
16326;SDS011;34812;49.846;9.610;2023-10-09T04:36:32;20.03;;;2.60;;
16326;SDS011;34812;49.846;9.610;2023-10-09T04:41:46;4.47;;;1.97;;
16326;SDS011;34812;49.846;9.610;2023-10-09T04:47:16;5.00;;;2.60;;
16326;SDS011;34812;49.846;9.610;2023-10-09T04:52:25;2.93;;;2.47;;
16326;SDS011;34812;49.846;9.610;2023-10-09T04:57:42;3.47;;;2.30;;
16326;SDS011;34812;49.846;9.610;2023-10-09T05:02:48;2.10;;;1.90;;
16326;SDS011;34812;49.846;9.610;2023-10-09T05:07:54;2.40;;;1.83;;
16326;SDS011;34812;49.846;9.610;2023-10-09T05:12:57;2.27;;;1.77;;
16326;SDS011;34812;49.846;9.610;2023-10-09T05:18:00;9.77;;;2.53;;
16326;SDS011;34812;49.846;9.610;2023-10-09T05:23:09;8.43;;;2.67;;
16326;SDS011;34812;49.846;9.610;2023-10-09T05:28:26;12.37;;;2.80;;
16326;SDS011;34812;49.846;9.610;2023-10-09T05:34:04;10.20;;;2.30;;
16326;SDS011;34812;49.846;9.610;2023-10-09T05:39:07;1.97;;;1.80;;
16326;SDS011;34812;49.846;9.610;2023-10-09T05:44:41;2.60;;;2.40;;
16326;SDS011;34812;49.846;9.610;2023-10-09T05:50:13;8.53;;;2.77;;
16326;SDS011;34812;49.846;9.610;2023-10-09T05:55:35;7.87;;;2.93;;
16326;SDS011;34812;49.846;9.610;2023-10-09T06:00:54;3.47;;;2.77;;
16326;SDS011;34812;49.846;9.610;2023-10-09T06:06:28;6.50;;;2.27;;
16326;SDS011;34812;49.846;9.610;2023-10-09T06:11:43;4.83;;;2.90;;
16326;SDS011;34812;49.846;9.610;2023-10-09T06:16:49;3.53;;;2.23;;
16326;SDS011;34812;49.846;9.610;2023-10-09T06:22:02;2.50;;;2.13;;
16326;SDS011;34812;49.846;9.610;2023-10-09T06:27:22;2.67;;;2.00;;
16326;SDS011;34812;49.846;9.610;2023-10-09T06:32:47;2.30;;;2.10;;
16326;SDS011;34812;49.846;9.610;2023-10-09T06:37:59;2.37;;;1.93;;
16326;SDS011;34812;49.846;9.610;2023-10-09T06:43:19;3.47;;;2.07;;
16326;SDS011;34812;49.846;9.610;2023-10-09T06:48:27;2.40;;;2.00;;
16326;SDS011;34812;49.846;9.610;2023-10-09T06:53:46;2.43;;;2.17;;
16326;SDS011;34812;49.846;9.610;2023-10-09T06:59:05;3.10;;;2.10;;
16326;SDS011;34812;49.846;9.610;2023-10-09T07:04:16;2.60;;;2.10;;
16326;SDS011;34812;49.846;9.610;2023-10-09T07:09:42;2.40;;;2.10;;
16326;SDS011;34812;49.846;9.610;2023-10-09T07:15:04;4.70;;;2.67;;
16326;SDS011;34812;49.846;9.610;2023-10-09T07:20:24;2.30;;;2.10;;
16326;SDS011;34812;49.846;9.610;2023-10-09T07:25:40;2.30;;;2.10;;
16326;SDS011;34812;49.846;9.610;2023-10-09T07:30:55;2.10;;;1.70;;
16326;SDS011;34812;49.846;9.610;2023-10-09T07:36:00;5.63;;;2.20;;
16326;SDS011;34812;49.846;9.610;2023-10-09T07:41:07;2.67;;;2.00;;
16326;SDS011;34812;49.846;9.610;2023-10-09T07:46:23;5.83;;;2.10;;
16326;SDS011;34812;49.846;9.610;2023-10-09T07:51:32;3.28;;;1.95;;
16326;SDS011;34812;49.846;9.610;2023-10-09T07:56:36;2.33;;;1.88;;
16326;SDS011;34812;49.846;9.610;2023-10-09T08:01:41;2.83;;;2.10;;
16326;SDS011;34812;49.846;9.610;2023-10-09T08:06:52;2.97;;;1.73;;
16326;SDS011;34812;49.846;9.610;2023-10-09T08:11:59;1.80;;;1.70;;
16326;SDS011;34812;49.846;9.610;2023-10-09T08:17:13;1.77;;;1.60;;
16326;SDS011;34812;49.846;9.610;2023-10-09T08:22:22;6.95;;;1.85;;
16326;SDS011;34812;49.846;9.610;2023-10-09T08:27:45;3.03;;;1.70;;
16326;SDS011;34812;49.846;9.610;2023-10-09T08:32:55;2.67;;;1.80;;
16326;SDS011;34812;49.846;9.610;2023-10-09T08:38:26;3.97;;;1.75;;
16326;SDS011;34812;49.846;9.610;2023-10-09T08:43:34;5.80;;;2.20;;
16326;SDS011;34812;49.846;9.610;2023-10-09T08:48:39;2.17;;;1.77;;
16326;SDS011;34812;49.846;9.610;2023-10-09T08:53:41;3.28;;;2.20;;
16326;SDS011;34812;49.846;9.610;2023-10-09T08:58:47;3.20;;;2.15;;
16326;SDS011;34812;49.846;9.610;2023-10-09T09:03:49;4.60;;;3.03;;
16326;SDS011;34812;49.846;9.610;2023-10-09T09:08:55;3.33;;;1.90;;
16326;SDS011;34812;49.846;9.610;2023-10-09T09:14:15;4.47;;;2.03;;
16326;SDS011;34812;49.846;9.610;2023-10-09T09:19:30;2.53;;;1.77;;
16326;SDS011;34812;49.846;9.610;2023-10-09T09:24:33;2.42;;;2.00;;
16326;SDS011;34812;49.846;9.610;2023-10-09T09:29:41;5.13;;;2.00;;
16326;SDS011;34812;49.846;9.610;2023-10-09T09:34:53;2.15;;;1.95;;
16326;SDS011;34812;49.846;9.610;2023-10-09T09:39:57;2.70;;;1.73;;
16326;SDS011;34812;49.846;9.610;2023-10-09T09:45:02;3.88;;;2.40;;
16326;SDS011;34812;49.846;9.610;2023-10-09T09:50:05;2.47;;;1.80;;
16326;SDS011;34812;49.846;9.610;2023-10-09T09:55:13;3.42;;;2.22;;
16326;SDS011;34812;49.846;9.610;2023-10-09T10:00:20;7.57;;;2.42;;
16326;SDS011;34812;49.846;9.610;2023-10-09T10:05:30;4.35;;;2.08;;
16326;SDS011;34812;49.846;9.610;2023-10-09T10:10:34;5.07;;;2.17;;
16326;SDS011;34812;49.846;9.610;2023-10-09T10:15:59;4.05;;;2.30;;
16326;SDS011;34812;49.846;9.610;2023-10-09T10:21:11;4.40;;;2.05;;
16326;SDS011;34812;49.846;9.610;2023-10-09T10:26:17;4.25;;;2.30;;
16326;SDS011;34812;49.846;9.610;2023-10-09T10:36:45;2.80;;;2.13;;
16326;SDS011;34812;49.846;9.610;2023-10-09T10:41:52;3.67;;;1.90;;
16326;SDS011;34812;49.846;9.610;2023-10-09T10:46:54;2.88;;;1.75;;
16326;SDS011;34812;49.846;9.610;2023-10-09T10:51:58;2.17;;;1.83;;
16326;SDS011;34812;49.846;9.610;2023-10-09T10:57:18;2.97;;;1.85;;
16326;SDS011;34812;49.846;9.610;2023-10-09T11:02:28;4.15;;;2.00;;
16326;SDS011;34812;49.846;9.610;2023-10-09T11:07:32;3.05;;;1.77;;
16326;SDS011;34812;49.846;9.610;2023-10-09T11:18:08;4.90;;;1.77;;
16326;SDS011;34812;49.846;9.610;2023-10-09T11:23:18;3.97;;;2.50;;
16326;SDS011;34812;49.846;9.610;2023-10-09T11:28:29;9.90;;;2.55;;
16326;SDS011;34812;49.846;9.610;2023-10-09T11:33:45;6.10;;;2.47;;
16326;SDS011;34812;49.846;9.610;2023-10-09T11:38:50;13.13;;;2.33;;
16326;SDS011;34812;49.846;9.610;2023-10-09T11:43:52;6.50;;;1.75;;
16326;SDS011;34812;49.846;9.610;2023-10-09T11:49:04;5.93;;;1.58;;
16326;SDS011;34812;49.846;9.610;2023-10-09T11:54:30;4.47;;;2.80;;
16326;SDS011;34812;49.846;9.610;2023-10-09T11:59:34;6.82;;;2.28;;
16326;SDS011;34812;49.846;9.610;2023-10-09T12:04:38;6.07;;;1.80;;
16326;SDS011;34812;49.846;9.610;2023-10-09T12:09:43;3.58;;;1.70;;
16326;SDS011;34812;49.846;9.610;2023-10-09T12:14:45;2.85;;;1.63;;
16326;SDS011;34812;49.846;9.610;2023-10-09T12:19:51;5.38;;;2.20;;
16326;SDS011;34812;49.846;9.610;2023-10-09T12:24:57;5.60;;;1.60;;
16326;SDS011;34812;49.846;9.610;2023-10-09T12:29:59;3.28;;;1.80;;
16326;SDS011;34812;49.846;9.610;2023-10-09T12:35:03;8.07;;;2.35;;
16326;SDS011;34812;49.846;9.610;2023-10-09T12:40:18;4.15;;;1.30;;
16326;SDS011;34812;49.846;9.610;2023-10-09T12:45:24;4.75;;;1.80;;
16326;SDS011;34812;49.846;9.610;2023-10-09T12:50:27;4.80;;;2.22;;
16326;SDS011;34812;49.846;9.610;2023-10-09T12:55:30;10.73;;;1.75;;
16326;SDS011;34812;49.846;9.610;2023-10-09T13:00:33;3.20;;;1.42;;
16326;SDS011;34812;49.846;9.610;2023-10-09T13:05:37;5.68;;;1.77;;
16326;SDS011;34812;49.846;9.610;2023-10-09T13:10:53;8.05;;;1.92;;
16326;SDS011;34812;49.846;9.610;2023-10-09T13:16:11;3.17;;;1.75;;
16326;SDS011;34812;49.846;9.610;2023-10-09T13:21:21;3.03;;;1.58;;
16326;SDS011;34812;49.846;9.610;2023-10-09T13:26:25;4.97;;;2.13;;
16326;SDS011;34812;49.846;9.610;2023-10-09T13:31:29;3.25;;;1.52;;
16326;SDS011;34812;49.846;9.610;2023-10-09T13:36:34;3.33;;;1.80;;
16326;SDS011;34812;49.846;9.610;2023-10-09T13:41:38;6.95;;;1.88;;
16326;SDS011;34812;49.846;9.610;2023-10-09T13:46:42;3.97;;;1.80;;
16326;SDS011;34812;49.846;9.610;2023-10-09T13:51:44;2.45;;;1.50;;
16326;SDS011;34812;49.846;9.610;2023-10-09T13:56:48;4.22;;;1.90;;
16326;SDS011;34812;49.846;9.610;2023-10-09T14:01:53;2.97;;;1.77;;
16326;SDS011;34812;49.846;9.610;2023-10-09T14:06:55;4.93;;;2.13;;
16326;SDS011;34812;49.846;9.610;2023-10-09T14:12:01;3.75;;;1.92;;
16326;SDS011;34812;49.846;9.610;2023-10-09T14:17:07;5.93;;;2.17;;
16326;SDS011;34812;49.846;9.610;2023-10-09T14:22:12;7.20;;;1.65;;
16326;SDS011;34812;49.846;9.610;2023-10-09T14:27:17;5.38;;;1.83;;
16326;SDS011;34812;49.846;9.610;2023-10-09T14:32:19;4.05;;;1.90;;
16326;SDS011;34812;49.846;9.610;2023-10-09T14:37:27;3.67;;;1.95;;
16326;SDS011;34812;49.846;9.610;2023-10-09T14:42:30;3.22;;;1.58;;
16326;SDS011;34812;49.846;9.610;2023-10-09T14:47:32;5.45;;;1.60;;
16326;SDS011;34812;49.846;9.610;2023-10-09T14:52:37;6.63;;;1.63;;
16326;SDS011;34812;49.846;9.610;2023-10-09T14:57:40;3.35;;;1.70;;
16326;SDS011;34812;49.846;9.610;2023-10-09T15:02:43;1.90;;;1.63;;
16326;SDS011;34812;49.846;9.610;2023-10-09T15:07:45;3.53;;;1.75;;
16326;SDS011;34812;49.846;9.610;2023-10-09T15:12:48;3.90;;;1.42;;
16326;SDS011;34812;49.846;9.610;2023-10-09T15:17:50;2.78;;;1.75;;
16326;SDS011;34812;49.846;9.610;2023-10-09T15:22:52;3.45;;;1.90;;
16326;SDS011;34812;49.846;9.610;2023-10-09T15:27:56;4.45;;;1.58;;
16326;SDS011;34812;49.846;9.610;2023-10-09T15:32:58;4.57;;;2.28;;
16326;SDS011;34812;49.846;9.610;2023-10-09T15:38:00;7.82;;;2.17;;
16326;SDS011;34812;49.846;9.610;2023-10-09T15:43:04;9.18;;;1.88;;
16326;SDS011;34812;49.846;9.610;2023-10-09T15:48:06;3.47;;;1.80;;
16326;SDS011;34812;49.846;9.610;2023-10-09T15:53:08;3.97;;;2.13;;
16326;SDS011;34812;49.846;9.610;2023-10-09T15:58:12;4.15;;;1.80;;
16326;SDS011;34812;49.846;9.610;2023-10-09T16:03:15;5.15;;;2.00;;
16326;SDS011;34812;49.846;9.610;2023-10-09T16:08:17;5.85;;;2.15;;
16326;SDS011;34812;49.846;9.610;2023-10-09T16:13:24;7.07;;;2.33;;
16326;SDS011;34812;49.846;9.610;2023-10-09T16:18:28;3.30;;;2.05;;
16326;SDS011;34812;49.846;9.610;2023-10-09T16:23:30;5.13;;;3.00;;
16326;SDS011;34812;49.846;9.610;2023-10-09T16:28:34;7.95;;;2.78;;
16326;SDS011;34812;49.846;9.610;2023-10-09T16:33:36;6.22;;;2.35;;
16326;SDS011;34812;49.846;9.610;2023-10-09T16:38:38;7.80;;;4.32;;
16326;SDS011;34812;49.846;9.610;2023-10-09T16:43:42;7.03;;;3.60;;
16326;SDS011;34812;49.846;9.610;2023-10-09T16:48:44;8.65;;;3.17;;
16326;SDS011;34812;49.846;9.610;2023-10-09T16:53:51;6.68;;;2.60;;
16326;SDS011;34812;49.846;9.610;2023-10-09T16:58:56;8.27;;;3.83;;
16326;SDS011;34812;49.846;9.610;2023-10-09T17:04:00;4.07;;;2.70;;
16326;SDS011;34812;49.846;9.610;2023-10-09T17:09:03;9.20;;;3.47;;
16326;SDS011;34812;49.846;9.610;2023-10-09T17:14:08;7.60;;;5.15;;
16326;SDS011;34812;49.846;9.610;2023-10-09T17:19:12;8.75;;;3.50;;
16326;SDS011;34812;49.846;9.610;2023-10-09T17:24:15;8.30;;;3.38;;
16326;SDS011;34812;49.846;9.610;2023-10-09T17:29:21;6.45;;;2.50;;
16326;SDS011;34812;49.846;9.610;2023-10-09T17:34:27;5.10;;;2.67;;
16326;SDS011;34812;49.846;9.610;2023-10-09T17:39:31;18.15;;;8.40;;
16326;SDS011;34812;49.846;9.610;2023-10-09T17:44:35;11.35;;;5.80;;
16326;SDS011;34812;49.846;9.610;2023-10-09T17:49:38;10.88;;;3.97;;
16326;SDS011;34812;49.846;9.610;2023-10-09T17:54:40;11.63;;;4.10;;
16326;SDS011;34812;49.846;9.610;2023-10-09T17:59:44;11.40;;;3.92;;
16326;SDS011;34812;49.846;9.610;2023-10-09T18:04:47;7.00;;;3.70;;
16326;SDS011;34812;49.846;9.610;2023-10-09T18:09:49;5.05;;;2.90;;
16326;SDS011;34812;49.846;9.610;2023-10-09T18:14:54;7.82;;;3.45;;
16326;SDS011;34812;49.846;9.610;2023-10-09T18:19:59;5.18;;;3.08;;
16326;SDS011;34812;49.846;9.610;2023-10-09T18:25:01;11.05;;;3.10;;
16326;SDS011;34812;49.846;9.610;2023-10-09T18:30:06;7.93;;;4.05;;
16326;SDS011;34812;49.846;9.610;2023-10-09T18:35:11;5.32;;;3.55;;
16326;SDS011;34812;49.846;9.610;2023-10-09T18:40:16;10.65;;;4.05;;
16326;SDS011;34812;49.846;9.610;2023-10-09T18:45:22;9.73;;;4.22;;
16326;SDS011;34812;49.846;9.610;2023-10-09T18:50:25;6.95;;;3.97;;
16326;SDS011;34812;49.846;9.610;2023-10-09T18:55:29;10.75;;;5.13;;
16326;SDS011;34812;49.846;9.610;2023-10-09T19:00:33;7.50;;;3.30;;
16326;SDS011;34812;49.846;9.610;2023-10-09T19:05:41;6.18;;;4.05;;
16326;SDS011;34812;49.846;9.610;2023-10-09T19:10:44;11.82;;;3.88;;
16326;SDS011;34812;49.846;9.610;2023-10-09T19:15:48;9.57;;;3.60;;
16326;SDS011;34812;49.846;9.610;2023-10-09T19:20:51;8.52;;;4.65;;
16326;SDS011;34812;49.846;9.610;2023-10-09T19:25:54;6.20;;;3.83;;
16326;SDS011;34812;49.846;9.610;2023-10-09T19:31:05;11.00;;;4.43;;
16326;SDS011;34812;49.846;9.610;2023-10-09T19:36:10;7.85;;;4.53;;
16326;SDS011;34812;49.846;9.610;2023-10-09T19:41:14;10.18;;;4.88;;
16326;SDS011;34812;49.846;9.610;2023-10-09T19:46:18;7.68;;;3.80;;
16326;SDS011;34812;49.846;9.610;2023-10-09T19:51:20;13.77;;;4.55;;
16326;SDS011;34812;49.846;9.610;2023-10-09T19:56:23;9.17;;;4.73;;
16326;SDS011;34812;49.846;9.610;2023-10-09T20:01:27;8.57;;;3.73;;
16326;SDS011;34812;49.846;9.610;2023-10-09T20:06:29;13.03;;;4.27;;
16326;SDS011;34812;49.846;9.610;2023-10-09T20:11:31;8.07;;;3.80;;
16326;SDS011;34812;49.846;9.610;2023-10-09T20:16:35;8.53;;;3.80;;
16326;SDS011;34812;49.846;9.610;2023-10-09T20:21:37;8.00;;;3.87;;
16326;SDS011;34812;49.846;9.610;2023-10-09T20:26:41;3.37;;;2.47;;
16326;SDS011;34812;49.846;9.610;2023-10-09T20:31:44;6.70;;;3.13;;
16326;SDS011;34812;49.846;9.610;2023-10-09T20:36:47;5.70;;;3.00;;
16326;SDS011;34812;49.846;9.610;2023-10-09T20:41:51;8.00;;;3.50;;
16326;SDS011;34812;49.846;9.610;2023-10-09T20:46:54;5.40;;;2.70;;
16326;SDS011;34812;49.846;9.610;2023-10-09T20:51:56;5.93;;;3.00;;
16326;SDS011;34812;49.846;9.610;2023-10-09T20:56:58;5.80;;;3.30;;
16326;SDS011;34812;49.846;9.610;2023-10-09T21:02:03;4.80;;;3.43;;
16326;SDS011;34812;49.846;9.610;2023-10-09T21:07:06;7.80;;;4.30;;
16326;SDS011;34812;49.846;9.610;2023-10-09T21:12:08;5.50;;;3.90;;
16326;SDS011;34812;49.846;9.610;2023-10-09T21:17:13;8.50;;;3.83;;
16326;SDS011;34812;49.846;9.610;2023-10-09T21:22:16;9.50;;;4.47;;
16326;SDS011;34812;49.846;9.610;2023-10-09T21:27:18;5.73;;;3.43;;
16326;SDS011;34812;49.846;9.610;2023-10-09T21:32:21;8.00;;;3.50;;
16326;SDS011;34812;49.846;9.610;2023-10-09T21:37:27;10.40;;;3.43;;
16326;SDS011;34812;49.846;9.610;2023-10-09T21:42:29;4.17;;;3.00;;
16326;SDS011;34812;49.846;9.610;2023-10-09T21:47:32;5.07;;;3.20;;
16326;SDS011;34812;49.846;9.610;2023-10-09T21:52:35;10.03;;;3.73;;
16326;SDS011;34812;49.846;9.610;2023-10-09T21:57:37;8.57;;;3.80;;
16326;SDS011;34812;49.846;9.610;2023-10-09T22:02:40;5.93;;;3.07;;
16326;SDS011;34812;49.846;9.610;2023-10-09T22:07:44;9.97;;;3.50;;
16326;SDS011;34812;49.846;9.610;2023-10-09T22:12:46;7.07;;;3.93;;
16326;SDS011;34812;49.846;9.610;2023-10-09T22:17:50;5.47;;;3.23;;
16326;SDS011;34812;49.846;9.610;2023-10-09T22:22:52;5.87;;;3.10;;
16326;SDS011;34812;49.846;9.610;2023-10-09T22:27:56;4.97;;;3.00;;
16326;SDS011;34812;49.846;9.610;2023-10-09T22:33:04;2.87;;;2.57;;
16326;SDS011;34812;49.846;9.610;2023-10-09T22:38:12;5.43;;;2.70;;
16326;SDS011;34812;49.846;9.610;2023-10-09T22:43:16;8.20;;;3.10;;
16326;SDS011;34812;49.846;9.610;2023-10-09T22:48:21;5.97;;;3.60;;
16326;SDS011;34812;49.846;9.610;2023-10-09T22:53:26;5.40;;;2.73;;
16326;SDS011;34812;49.846;9.610;2023-10-09T22:58:37;6.27;;;3.37;;
16326;SDS011;34812;49.846;9.610;2023-10-09T23:03:52;9.67;;;2.73;;
16326;SDS011;34812;49.846;9.610;2023-10-09T23:09:10;5.10;;;3.53;;
16326;SDS011;34812;49.846;9.610;2023-10-09T23:14:14;10.40;;;2.87;;
16326;SDS011;34812;49.846;9.610;2023-10-09T23:19:26;4.47;;;2.77;;
16326;SDS011;34812;49.846;9.610;2023-10-09T23:24:40;4.60;;;3.27;;
16326;SDS011;34812;49.846;9.610;2023-10-09T23:29:50;3.43;;;2.80;;
16326;SDS011;34812;49.846;9.610;2023-10-09T23:34:54;6.13;;;2.73;;
16326;SDS011;34812;49.846;9.610;2023-10-09T23:39:59;5.97;;;3.37;;
16326;SDS011;34812;49.846;9.610;2023-10-09T23:45:08;6.50;;;2.80;;
16326;SDS011;34812;49.846;9.610;2023-10-09T23:50:22;5.23;;;2.93;;
16326;SDS011;34812;49.846;9.610;2023-10-09T23:55:24;4.63;;;2.63;;
